Caracas, Venezuela
Current Conditions -  °F | °C
As of 3:00 PM on Thursday 23 Oct 2014 (Local Time) from SVMI Reporting Station
Few Clouds Few Clouds  
Wind Chill: 90°   Ceiling: Unl
Heat Index: 95°   Visibility: 6mi
Dew Point: 70°   Wind: 1mph
Humidity: 52%   Direction: 20°NNE
Pressure: 29.83"   Gusts: NA
Location:  10.5°N, 66.9°W
Report Text: SVMI 231900Z 02001KT 9999 FEW016 32/21 Q1010 NOSIG
Loading
Personal Weather Stations






























Interactive Weather Map
Tropical Storm Tracking
New forecast layout! Learn more

10-Day Weather Forecast

Advertisements
Track Severe Weather on mobile